createdAt,value
2018-09-28T00:00:28.851Z,54.20
2018-09-28T00:02:57.660Z,54.62
2018-09-28T00:05:26.323Z,54.68
2018-09-28T00:07:55.032Z,54.52
2018-09-28T00:10:23.768Z,55.04
2018-09-28T00:12:52.552Z,55.48
2018-09-28T00:15:21.267Z,55.30
2018-09-28T00:17:49.909Z,55.04
2018-09-28T00:20:18.623Z,54.95
2018-09-28T00:22:47.272Z,54.54
2018-09-28T00:25:15.965Z,54.49
2018-09-28T00:27:44.667Z,55.59
2018-09-28T00:30:13.377Z,54.87
2018-09-28T00:32:42.125Z,55.00
2018-09-28T00:35:10.839Z,55.21
2018-09-28T00:37:39.537Z,55.45
2018-09-28T00:40:08.295Z,55.24
2018-09-28T00:42:36.925Z,56.11
2018-09-28T00:45:05.703Z,55.39
2018-09-28T00:47:34.728Z,55.32
2018-09-28T00:50:03.467Z,55.85
2018-09-28T00:52:32.117Z,55.05
2018-09-28T00:55:00.820Z,55.56
2018-09-28T00:57:29.480Z,56.82
2018-09-28T00:59:58.108Z,56.78
2018-09-28T01:02:26.765Z,56.56
2018-09-28T01:04:55.428Z,56.64
2018-09-28T01:07:24.075Z,55.67
2018-09-28T01:09:52.713Z,55.96
2018-09-28T01:12:21.351Z,57.21
2018-09-28T01:14:50.008Z,58.29
2018-09-28T01:17:18.674Z,58.30
2018-09-28T01:19:47.303Z,57.99
2018-09-28T01:22:16.019Z,55.78
2018-09-28T01:24:44.639Z,57.76
2018-09-28T01:27:13.278Z,58.59
2018-09-28T01:29:41.907Z,59.47
2018-09-28T01:32:10.575Z,60.15
2018-09-28T01:34:39.251Z,60.53
2018-09-28T01:37:08.148Z,60.72
2018-09-28T01:39:36.857Z,59.75
2018-09-28T01:42:05.551Z,58.63
2018-09-28T01:44:34.167Z,58.93
2018-09-28T01:47:02.863Z,58.64
2018-09-28T01:49:31.566Z,58.85
2018-09-28T01:52:00.207Z,59.56
2018-09-28T01:54:28.873Z,59.36
2018-09-28T01:56:57.539Z,57.74
2018-09-28T01:59:26.342Z,58.16
2018-09-28T02:01:55.003Z,59.61
2018-09-28T02:04:23.833Z,58.80
2018-09-28T02:06:52.536Z,59.00
2018-09-28T02:09:21.186Z,59.50
2018-09-28T02:11:49.894Z,58.87
2018-09-28T02:14:18.533Z,59.00
2018-09-28T02:16:47.236Z,58.27
2018-09-28T02:19:15.895Z,57.68
2018-09-28T02:21:44.567Z,57.36
2018-09-28T02:24:13.219Z,57.77
2018-09-28T02:26:41.896Z,59.05
2018-09-28T02:29:10.573Z,59.83
2018-09-28T02:31:39.216Z,59.67
2018-09-28T02:34:07.867Z,60.43
2018-09-28T02:36:36.525Z,60.53
2018-09-28T02:39:07.053Z,60.13
2018-09-28T02:41:35.741Z,59.70
2018-09-28T02:44:04.506Z,59.96
2018-09-28T02:46:33.185Z,59.49
2018-09-28T02:49:02.109Z,59.36
2018-09-28T02:51:30.855Z,59.29
2018-09-28T02:53:59.520Z,60.55
2018-09-28T02:56:28.188Z,60.58
2018-09-28T02:58:56.845Z,61.17
2018-09-28T03:01:25.510Z,62.15
2018-09-28T03:03:54.257Z,62.33
2018-09-28T03:06:23.187Z,63.24
2018-09-28T03:08:51.752Z,63.90
2018-09-28T03:11:20.473Z,62.51
2018-09-28T03:13:49.120Z,62.86
2018-09-28T03:16:17.854Z,63.27
2018-09-28T03:18:46.623Z,64.45
2018-09-28T03:21:15.332Z,64.78
2018-09-28T03:23:44.013Z,63.96
2018-09-28T03:26:12.714Z,63.41
2018-09-28T03:28:41.360Z,63.48
2018-09-28T03:31:10.111Z,62.66
2018-09-28T03:33:38.753Z,62.58
2018-09-28T03:36:07.482Z,61.63
2018-09-28T03:38:36.751Z,61.35
2018-09-28T03:41:05.549Z,61.96
2018-09-28T03:43:34.280Z,62.07
2018-09-28T03:46:03.068Z,61.39
2018-09-28T03:48:31.712Z,63.14
2018-09-28T03:51:00.485Z,63.39
2018-09-28T03:53:29.133Z,63.08
2018-09-28T03:55:57.786Z,63.42
2018-09-28T03:58:26.495Z,62.78
2018-09-28T04:00:55.228Z,62.04
2018-09-28T04:03:23.901Z,63.12
2018-09-28T04:05:52.605Z,62.78
2018-09-28T04:08:21.268Z,63.74
2018-09-28T04:10:49.955Z,64.08
2018-09-28T04:13:18.647Z,62.30
2018-09-28T04:15:47.371Z,62.59
2018-09-28T04:18:16.124Z,62.25
2018-09-28T04:20:44.763Z,62.28
2018-09-28T04:23:13.449Z,62.31
2018-09-28T04:25:42.409Z,62.13
2018-09-28T04:28:11.084Z,62.97
2018-09-28T04:30:39.864Z,62.37
2018-09-28T04:33:08.659Z,59.47
2018-09-28T04:35:37.364Z,58.87
2018-09-28T04:38:06.015Z,59.30
2018-09-28T04:40:34.739Z,60.34
2018-09-28T04:43:03.562Z,60.06
2018-09-28T04:45:32.382Z,58.65
2018-09-28T04:48:01.476Z,57.44
2018-09-28T04:50:30.176Z,57.77
2018-09-28T04:52:58.835Z,57.13
2018-09-28T04:55:27.556Z,56.61
2018-09-28T04:57:56.204Z,56.11
2018-09-28T05:00:24.923Z,55.58
2018-09-28T05:02:53.684Z,54.21
2018-09-28T05:05:22.309Z,53.52
2018-09-28T05:07:51.196Z,52.95
2018-09-28T05:10:19.849Z,52.01
2018-09-28T05:12:48.490Z,51.41
2018-09-28T05:15:17.232Z,51.50
2018-09-28T05:17:45.884Z,50.39
2018-09-28T05:20:14.511Z,50.30
2018-09-28T05:22:43.413Z,49.71
2018-09-28T05:25:12.118Z,48.50
2018-09-28T05:27:40.847Z,48.07
2018-09-28T05:30:09.651Z,47.27
2018-09-28T05:32:38.513Z,48.21
2018-09-28T05:35:07.096Z,47.73
2018-09-28T05:37:35.737Z,47.31
2018-09-28T05:40:04.488Z,46.33
2018-09-28T05:42:33.123Z,45.64
2018-09-28T05:45:01.816Z,46.48
2018-09-28T05:47:30.466Z,46.25
2018-09-28T05:49:59.319Z,44.26
2018-09-28T05:52:28.008Z,43.51
2018-09-28T05:54:56.699Z,43.62
2018-09-28T05:57:25.427Z,43.63
2018-09-28T05:59:59.215Z,43.36
2018-09-28T06:02:33.097Z,43.56
2018-09-28T06:05:07.044Z,43.70
2018-09-28T06:07:35.883Z,44.41
2018-09-28T06:10:04.683Z,44.11
2018-09-28T06:12:33.526Z,45.36
2018-09-28T06:15:02.266Z,45.02
2018-09-28T06:17:30.999Z,44.39
2018-09-28T06:19:59.715Z,44.61
2018-09-28T06:22:28.507Z,43.42
2018-09-28T06:24:57.328Z,42.80
2018-09-28T06:27:26.075Z,42.88
2018-09-28T06:29:54.894Z,42.42
2018-09-28T06:32:23.625Z,42.57
2018-09-28T06:34:52.401Z,42.50
2018-09-28T06:37:21.211Z,42.28
2018-09-28T06:39:49.832Z,41.33
2018-09-28T06:42:18.573Z,40.14
2018-09-28T06:44:47.231Z,40.49
2018-09-28T06:47:15.848Z,39.07
2018-09-28T06:49:44.494Z,39.48
2018-09-28T06:52:13.139Z,38.43
2018-09-28T06:54:41.809Z,37.78
2018-09-28T06:57:10.589Z,37.46
2018-09-28T06:59:39.272Z,36.09
2018-09-28T07:02:08.021Z,36.10
2018-09-28T07:04:36.808Z,35.38
2018-09-28T07:07:05.555Z,35.10
2018-09-28T07:09:34.368Z,33.81
2018-09-28T07:12:03.032Z,34.47
2018-09-28T07:14:31.693Z,33.91
2018-09-28T07:17:00.714Z,33.65
2018-09-28T07:19:29.427Z,32.55
2018-09-28T07:21:58.168Z,32.70
2018-09-28T07:24:27.858Z,33.82
2018-09-28T07:26:56.512Z,34.10
2018-09-28T07:29:25.343Z,33.70
2018-09-28T07:31:54.244Z,33.63
2018-09-28T07:34:23.155Z,32.60
2018-09-28T07:36:51.907Z,31.94
2018-09-28T07:39:20.487Z,32.86
2018-09-28T07:41:49.269Z,31.60
2018-09-28T07:44:17.922Z,32.94
2018-09-28T07:46:46.804Z,31.58
2018-09-28T07:49:15.473Z,31.54
2018-09-28T07:51:44.255Z,30.22
2018-09-28T07:54:12.915Z,30.81
2018-09-28T07:56:41.621Z,29.62
2018-09-28T07:59:10.319Z,29.02
2018-09-28T08:01:39.134Z,29.04
2018-09-28T08:04:08.008Z,28.74
2018-09-28T08:06:36.792Z,28.11
2018-09-28T08:09:07.760Z,27.50
2018-09-28T08:11:36.499Z,26.73
2018-09-28T08:14:05.338Z,28.14
2018-09-28T08:16:34.150Z,27.74
2018-09-28T08:19:02.870Z,27.25
2018-09-28T08:21:31.688Z,27.41
2018-09-28T08:24:01.041Z,27.16
2018-09-28T08:26:29.722Z,26.42
2018-09-28T08:28:58.423Z,26.75
2018-09-28T08:31:27.074Z,26.85
2018-09-28T08:33:55.761Z,26.57
2018-09-28T08:36:24.563Z,26.46
2018-09-28T08:38:53.204Z,25.92
2018-09-28T08:41:21.855Z,26.14
2018-09-28T08:43:50.527Z,25.42
2018-09-28T08:46:19.547Z,25.94
2018-09-28T08:48:48.290Z,24.89
2018-09-28T08:51:17.105Z,24.76
2018-09-28T08:54:00.476Z,25.58
2018-09-28T08:56:29.191Z,25.00
2018-09-28T08:58:58.248Z,24.39
2018-09-28T09:01:26.983Z,24.34
2018-09-28T09:03:55.631Z,23.79
2018-09-28T09:06:24.394Z,24.54
2018-09-28T09:08:53.141Z,23.86
2018-09-28T09:11:21.868Z,22.73
2018-09-28T09:13:50.759Z,22.74
2018-09-28T09:16:19.591Z,22.82
2018-09-28T09:18:48.354Z,21.98
2018-09-28T09:21:17.103Z,21.87
2018-09-28T09:23:45.803Z,23.53
2018-09-28T09:26:14.548Z,23.45
2018-09-28T09:28:43.291Z,22.19
2018-09-28T09:31:11.975Z,22.19
2018-09-28T09:33:40.608Z,22.10
2018-09-28T09:36:09.296Z,21.88
2018-09-28T09:38:37.935Z,21.59
2018-09-28T09:41:07.000Z,21.26
2018-09-28T09:43:35.687Z,20.69
2018-09-28T09:46:04.336Z,19.52
2018-09-28T09:48:33.978Z,19.92
2018-09-28T09:51:02.725Z,20.64
2018-09-28T09:53:31.457Z,18.97
2018-09-28T09:56:00.150Z,18.05
2018-09-28T09:58:28.912Z,16.91
2018-09-28T10:01:02.780Z,15.63
2018-09-28T10:03:36.725Z,15.00
2018-09-28T10:06:05.535Z,15.47
2018-09-28T10:08:34.440Z,15.78
2018-09-28T10:11:03.773Z,16.43
2018-09-28T10:13:32.500Z,16.17
2018-09-28T10:16:02.408Z,16.18
2018-09-28T10:18:31.158Z,16.94
2018-09-28T10:20:59.928Z,16.20
2018-09-28T10:23:28.731Z,15.70
2018-09-28T10:25:57.581Z,16.54
2018-09-28T10:28:26.437Z,15.13
2018-09-28T10:30:55.163Z,15.15
2018-09-28T10:33:23.880Z,16.05
2018-09-28T10:35:52.677Z,16.72
2018-09-28T10:38:21.438Z,17.37
2018-09-28T10:40:50.304Z,16.24
2018-09-28T10:43:18.964Z,16.21
2018-09-28T10:45:47.707Z,15.82
2018-09-28T10:48:16.410Z,16.93
2018-09-28T10:50:45.106Z,16.18
2018-09-28T10:53:13.861Z,16.10
2018-09-28T10:55:42.519Z,17.07
2018-09-28T10:58:11.281Z,17.45
2018-09-28T11:00:39.935Z,17.03
2018-09-28T11:03:08.773Z,17.00
2018-09-28T11:05:37.576Z,17.30
2018-09-28T11:08:06.403Z,17.03
2018-09-28T11:10:35.085Z,16.15
2018-09-28T11:13:03.888Z,15.04
2018-09-28T11:15:32.652Z,14.76
2018-09-28T11:18:01.289Z,15.72
2018-09-28T11:20:30.040Z,16.32
2018-09-28T11:22:58.699Z,15.95
2018-09-28T11:25:27.391Z,16.02
2018-09-28T11:27:56.089Z,14.88
2018-09-28T11:30:24.810Z,14.85
2018-09-28T11:32:53.493Z,14.82
2018-09-28T11:35:22.161Z,15.57
2018-09-28T11:37:51.225Z,15.67
2018-09-28T11:40:19.832Z,15.58
2018-09-28T11:42:48.596Z,15.91
2018-09-28T11:45:17.301Z,14.82
2018-09-28T11:47:45.958Z,15.31
2018-09-28T11:50:14.736Z,15.00
2018-09-28T11:52:43.520Z,14.74
2018-09-28T11:55:12.261Z,14.55
2018-09-28T11:57:41.160Z,14.53
2018-09-28T12:00:12.620Z,14.22
2018-09-28T12:02:41.369Z,13.59
2018-09-28T12:05:10.049Z,13.61
2018-09-28T12:07:38.740Z,14.85
2018-09-28T12:10:07.588Z,14.34
2018-09-28T12:12:36.494Z,13.42
2018-09-28T12:15:05.379Z,14.23
2018-09-28T12:17:34.066Z,14.47
2018-09-28T12:20:02.752Z,14.71
2018-09-28T12:22:31.425Z,13.89
2018-09-28T12:25:00.220Z,14.23
2018-09-28T12:27:29.030Z,14.55
2018-09-28T12:29:57.775Z,14.66
2018-09-28T12:32:26.440Z,14.40
2018-09-28T12:34:55.135Z,14.79
2018-09-28T12:37:23.818Z,14.92
2018-09-28T12:39:52.640Z,14.40
2018-09-28T12:42:21.459Z,15.08
2018-09-28T12:44:50.250Z,14.63
2018-09-28T12:47:18.987Z,15.11
2018-09-28T12:49:47.747Z,14.33
2018-09-28T12:52:16.577Z,14.80
2018-09-28T12:54:45.353Z,14.43
2018-09-28T12:57:14.228Z,14.71
2018-09-28T12:59:43.084Z,14.25
2018-09-28T13:02:11.845Z,14.13
2018-09-28T13:04:40.611Z,14.47
2018-09-28T13:07:09.418Z,14.37
2018-09-28T13:09:38.159Z,14.52
2018-09-28T13:12:07.843Z,14.51
2018-09-28T13:14:36.639Z,15.32
2018-09-28T13:17:05.494Z,15.11
2018-09-28T13:19:34.353Z,14.68
2018-09-28T13:22:03.060Z,15.07
2018-09-28T13:24:32.054Z,15.06
2018-09-28T13:27:00.836Z,14.46
2018-09-28T13:29:29.818Z,15.35
2018-09-28T13:31:58.504Z,14.60
2018-09-28T13:34:27.281Z,14.93
2018-09-28T13:36:55.991Z,14.83
2018-09-28T13:39:24.661Z,14.70
2018-09-28T13:41:53.437Z,14.15
2018-09-28T13:44:22.186Z,14.80
2018-09-28T13:46:51.105Z,13.51
2018-09-28T13:49:19.744Z,14.32
2018-09-28T13:51:48.447Z,13.94
2018-09-28T13:54:17.208Z,14.54
2018-09-28T13:56:46.012Z,14.19
2018-09-28T13:59:14.761Z,14.87
2018-09-28T14:01:43.494Z,14.40
2018-09-28T14:04:12.145Z,14.59
2018-09-28T14:06:40.938Z,14.91
2018-09-28T14:09:10.372Z,14.21
2018-09-28T14:11:39.296Z,14.87
2018-09-28T14:14:08.116Z,14.67
2018-09-28T14:16:37.344Z,14.98
2018-09-28T14:19:06.267Z,14.94
2018-09-28T14:21:35.094Z,14.96
2018-09-28T14:24:03.784Z,14.92
2018-09-28T14:26:32.679Z,14.87
2018-09-28T14:29:01.392Z,16.11
2018-09-28T14:31:30.075Z,15.89
2018-09-28T14:33:58.852Z,14.99
2018-09-28T14:36:27.649Z,15.67
2018-09-28T14:38:56.272Z,15.67
2018-09-28T14:41:24.937Z,14.17
2018-09-28T14:43:53.772Z,15.58
2018-09-28T14:46:22.716Z,14.21
2018-09-28T14:48:51.491Z,14.56
2018-09-28T14:51:20.136Z,14.39
2018-09-28T14:53:48.805Z,14.20
2018-09-28T14:56:17.601Z,14.71
2018-09-28T14:58:46.316Z,13.83
2018-09-28T15:01:15.933Z,14.54
2018-09-28T15:03:44.589Z,14.80
2018-09-28T15:06:13.963Z,14.94
2018-09-28T15:08:42.760Z,14.69
2018-09-28T15:11:11.572Z,14.73
2018-09-28T15:13:40.214Z,14.73
2018-09-28T15:16:08.955Z,14.55
2018-09-28T15:18:37.659Z,15.46
2018-09-28T15:21:06.133Z,16.29
2018-09-28T15:23:34.948Z,15.64
2018-09-28T15:26:03.592Z,15.36
2018-09-28T15:28:32.249Z,15.06
2018-09-28T15:31:00.946Z,15.86
2018-09-28T15:33:29.586Z,16.00
2018-09-28T15:35:58.234Z,15.79
2018-09-28T15:38:26.941Z,16.43
2018-09-28T15:40:55.694Z,16.40
2018-09-28T15:43:24.700Z,16.42
2018-09-28T15:45:53.439Z,15.77
2018-09-28T15:48:22.257Z,16.46
2018-09-28T15:50:50.957Z,16.54
2018-09-28T15:53:19.645Z,16.71
2018-09-28T15:55:48.341Z,17.43
2018-09-28T15:58:17.029Z,17.16
2018-09-28T16:00:45.724Z,17.86
2018-09-28T16:03:14.542Z,17.56
2018-09-28T16:05:43.287Z,18.26
2018-09-28T16:08:11.954Z,18.93
2018-09-28T16:10:40.592Z,18.96
2018-09-28T16:13:09.221Z,19.05
2018-09-28T16:15:38.033Z,19.78
2018-09-28T16:18:06.712Z,19.88
2018-09-28T16:20:35.423Z,20.93
2018-09-28T16:23:04.243Z,21.73
2018-09-28T16:25:33.021Z,21.65
2018-09-28T16:28:01.693Z,21.41
2018-09-28T16:30:30.452Z,22.06
2018-09-28T16:32:59.209Z,22.38
2018-09-28T16:35:27.943Z,22.25
2018-09-28T16:37:56.614Z,22.64
2018-09-28T16:40:25.296Z,23.28
2018-09-28T16:42:54.112Z,22.77
2018-09-28T16:45:22.760Z,23.56
2018-09-28T16:47:51.443Z,23.04
2018-09-28T16:50:20.580Z,23.54
2018-09-28T16:52:49.388Z,23.76
2018-09-28T16:55:18.040Z,23.75
2018-09-28T16:57:46.753Z,24.03
2018-09-28T17:00:15.593Z,24.63
2018-09-28T17:02:44.268Z,24.29
2018-09-28T17:05:12.980Z,23.95
2018-09-28T17:07:41.668Z,24.01
2018-09-28T17:10:10.433Z,25.08
2018-09-28T17:12:39.244Z,24.92
2018-09-28T17:15:07.928Z,25.27
2018-09-28T17:17:36.645Z,25.60
2018-09-28T17:20:05.512Z,26.01
2018-09-28T17:22:34.161Z,25.59
2018-09-28T17:25:03.000Z,25.84
2018-09-28T17:27:31.794Z,25.66
2018-09-28T17:30:00.557Z,25.48
2018-09-28T17:32:29.581Z,26.36
2018-09-28T17:34:58.442Z,25.80
2018-09-28T17:37:27.100Z,25.86
2018-09-28T17:39:55.844Z,26.09
2018-09-28T17:42:24.489Z,26.23
2018-09-28T17:44:53.151Z,26.52
2018-09-28T17:47:21.836Z,26.76
2018-09-28T17:49:50.499Z,26.77
2018-09-28T17:52:19.241Z,27.21
2018-09-28T17:54:48.088Z,27.29
2018-09-28T17:57:16.867Z,27.61
2018-09-28T17:59:45.635Z,27.52
2018-09-28T18:02:14.378Z,27.34
2018-09-28T18:04:43.221Z,27.28
2018-09-28T18:07:11.901Z,27.02
2018-09-28T18:09:41.192Z,27.41
2018-09-28T18:12:09.968Z,26.89
2018-09-28T18:14:38.660Z,28.24
2018-09-28T18:17:07.394Z,26.91
2018-09-28T18:19:36.092Z,27.60
2018-09-28T18:22:05.041Z,27.19
2018-09-28T18:24:33.802Z,27.75
2018-09-28T18:27:02.499Z,28.23
2018-09-28T18:29:31.144Z,28.11
2018-09-28T18:31:59.858Z,28.81
2018-09-28T18:34:28.523Z,28.46
2018-09-28T18:36:57.175Z,28.95
2018-09-28T18:39:25.954Z,29.07
2018-09-28T18:41:54.620Z,28.66
2018-09-28T18:44:23.344Z,29.63
2018-09-28T18:46:51.984Z,28.98
2018-09-28T18:49:21.078Z,29.82
2018-09-28T18:51:49.847Z,29.31
2018-09-28T18:54:18.500Z,30.21
2018-09-28T18:56:47.275Z,29.75
2018-09-28T18:59:15.928Z,29.85
2018-09-28T19:01:44.612Z,29.88
2018-09-28T19:04:13.348Z,30.05
2018-09-28T19:06:42.091Z,30.51
2018-09-28T19:09:12.022Z,30.19
2018-09-28T19:11:41.193Z,30.90
2018-09-28T19:14:09.885Z,30.50
2018-09-28T19:16:38.600Z,30.45
2018-09-28T19:19:07.310Z,30.70
2018-09-28T19:21:36.003Z,30.77
2018-09-28T19:24:04.700Z,30.62
2018-09-28T19:26:33.413Z,30.59
2018-09-28T19:29:02.151Z,30.61
2018-09-28T19:31:30.944Z,31.23
2018-09-28T19:33:59.621Z,31.02
2018-09-28T19:36:28.360Z,31.36
2018-09-28T19:38:57.308Z,30.89
2018-09-28T19:41:26.025Z,31.00
2018-09-28T19:43:54.834Z,31.33
2018-09-28T19:46:23.609Z,32.12
2018-09-28T19:48:52.331Z,31.80
2018-09-28T19:51:21.065Z,32.40
2018-09-28T19:53:49.801Z,32.31
2018-09-28T19:56:18.588Z,32.44
2018-09-28T19:58:47.236Z,32.31
2018-09-28T20:01:16.270Z,32.03
2018-09-28T20:03:45.641Z,32.98
2018-09-28T20:06:14.371Z,32.92
2018-09-28T20:08:43.226Z,33.01
2018-09-28T20:11:12.012Z,33.17
2018-09-28T20:13:40.719Z,33.41
2018-09-28T20:16:09.485Z,33.28
2018-09-28T20:18:38.200Z,33.35
2018-09-28T20:21:07.300Z,33.55
2018-09-28T20:23:36.062Z,34.13
2018-09-28T20:26:04.852Z,33.82
2018-09-28T20:28:33.628Z,34.70
2018-09-28T20:31:02.365Z,34.56
2018-09-28T20:33:31.115Z,34.17
2018-09-28T20:35:59.768Z,34.39
2018-09-28T20:38:28.497Z,33.96
2018-09-28T20:40:57.204Z,34.13
2018-09-28T20:43:25.975Z,34.03
2018-09-28T20:45:54.661Z,34.44
2018-09-28T20:48:23.372Z,34.40
2018-09-28T20:50:52.048Z,34.51
2018-09-28T20:53:20.852Z,34.42
2018-09-28T20:55:49.517Z,34.49
2018-09-28T20:58:18.169Z,35.08
2018-09-28T21:00:46.858Z,34.83
2018-09-28T21:03:15.498Z,35.46
2018-09-28T21:05:44.143Z,35.38
2018-09-28T21:08:12.791Z,35.56
2018-09-28T21:10:41.741Z,35.23
2018-09-28T21:13:10.452Z,35.57
2018-09-28T21:15:39.118Z,35.23
2018-09-28T21:18:07.843Z,35.81
2018-09-28T21:20:36.533Z,35.84
2018-09-28T21:23:05.212Z,35.45
2018-09-28T21:25:34.077Z,35.84
2018-09-28T21:28:02.745Z,35.78
2018-09-28T21:30:31.467Z,36.02
2018-09-28T21:33:00.128Z,36.08
2018-09-28T21:35:29.009Z,35.63
2018-09-28T21:37:57.772Z,36.16
2018-09-28T21:40:26.488Z,36.40
2018-09-28T21:42:55.312Z,35.58
2018-09-28T21:45:24.062Z,35.65
2018-09-28T21:47:52.768Z,35.94
2018-09-28T21:50:21.575Z,35.76
2018-09-28T21:52:50.292Z,36.03
2018-09-28T21:55:19.083Z,35.83
2018-09-28T21:57:47.938Z,35.91
2018-09-28T22:00:16.648Z,35.88
2018-09-28T22:02:45.340Z,35.78
2018-09-28T22:05:14.076Z,35.88
2018-09-28T22:07:42.924Z,36.18
2018-09-28T22:10:11.659Z,36.29
2018-09-28T22:12:40.372Z,36.20
2018-09-28T22:15:09.021Z,36.68
2018-09-28T22:17:37.785Z,36.37
2018-09-28T22:20:06.940Z,36.54
2018-09-28T22:22:35.608Z,36.19
2018-09-28T22:25:04.333Z,36.35
2018-09-28T22:27:32.957Z,36.53
2018-09-28T22:30:01.637Z,36.63
2018-09-28T22:32:30.317Z,36.83
2018-09-28T22:34:59.056Z,36.72
2018-09-28T22:37:27.701Z,36.41
2018-09-28T22:39:56.494Z,36.90
2018-09-28T22:42:25.209Z,36.73
2018-09-28T22:44:54.006Z,36.36
2018-09-28T22:47:22.781Z,36.80
2018-09-28T22:49:51.587Z,37.08
2018-09-28T22:52:20.269Z,37.66
2018-09-28T22:54:48.941Z,38.00
2018-09-28T22:57:17.665Z,37.38
2018-09-28T22:59:46.414Z,37.54
2018-09-28T23:02:15.206Z,37.23
2018-09-28T23:04:43.900Z,36.81
2018-09-28T23:07:12.700Z,36.95
2018-09-28T23:09:41.395Z,36.81
2018-09-28T23:12:10.067Z,37.04
2018-09-28T23:14:38.836Z,37.58
2018-09-28T23:17:07.639Z,37.20
2018-09-28T23:19:36.369Z,37.57
2018-09-28T23:22:05.152Z,37.55
2018-09-28T23:24:33.817Z,37.13
2018-09-28T23:27:02.574Z,37.32
2018-09-28T23:29:31.238Z,38.42
2018-09-28T23:31:59.964Z,38.80
2018-09-28T23:34:28.600Z,39.53
2018-09-28T23:36:57.277Z,39.12
2018-09-28T23:39:25.958Z,39.42
2018-09-28T23:41:54.717Z,40.09
2018-09-28T23:44:23.386Z,40.15
2018-09-28T23:46:52.121Z,40.18
2018-09-28T23:49:20.938Z,40.76
2018-09-28T23:51:49.951Z,39.93
2018-09-28T23:54:18.762Z,39.47
2018-09-28T23:56:47.742Z,39.98
2018-09-28T23:59:16.476Z,40.53
